sensor_id;sensor_type;location;lat;lon;timestamp;P1;durP1;ratioP1;P2;durP2;ratioP2
54428;SDS011;40337;52.978;6.310;2022-11-20T00:01:08;18.08;;;15.45;;
54428;SDS011;40337;52.978;6.310;2022-11-20T00:03:41;18.98;;;16.25;;
54428;SDS011;40337;52.978;6.310;2022-11-20T00:06:08;19.10;;;15.57;;
54428;SDS011;40337;52.978;6.310;2022-11-20T00:08:36;18.23;;;15.10;;
54428;SDS011;40337;52.978;6.310;2022-11-20T00:11:06;17.95;;;14.50;;
54428;SDS011;40337;52.978;6.310;2022-11-20T00:13:33;17.95;;;14.63;;
54428;SDS011;40337;52.978;6.310;2022-11-20T00:15:59;18.67;;;15.60;;
54428;SDS011;40337;52.978;6.310;2022-11-20T00:18:26;18.92;;;15.77;;
54428;SDS011;40337;52.978;6.310;2022-11-20T00:20:52;17.27;;;14.90;;
54428;SDS011;40337;52.978;6.310;2022-11-20T00:23:19;17.48;;;15.27;;
54428;SDS011;40337;52.978;6.310;2022-11-20T00:25:45;16.73;;;14.60;;
54428;SDS011;40337;52.978;6.310;2022-11-20T00:28:10;17.83;;;14.10;;
54428;SDS011;40337;52.978;6.310;2022-11-20T00:30:36;16.88;;;13.93;;
54428;SDS011;40337;52.978;6.310;2022-11-20T00:33:01;17.23;;;14.27;;
54428;SDS011;40337;52.978;6.310;2022-11-20T00:35:27;18.33;;;15.52;;
54428;SDS011;40337;52.978;6.310;2022-11-20T00:37:52;18.05;;;14.93;;
54428;SDS011;40337;52.978;6.310;2022-11-20T00:40:18;16.05;;;14.10;;
54428;SDS011;40337;52.978;6.310;2022-11-20T00:42:43;17.23;;;14.23;;
54428;SDS011;40337;52.978;6.310;2022-11-20T00:45:09;17.73;;;14.38;;
54428;SDS011;40337;52.978;6.310;2022-11-20T00:47:35;18.55;;;14.52;;
54428;SDS011;40337;52.978;6.310;2022-11-20T00:50:00;18.85;;;14.65;;
54428;SDS011;40337;52.978;6.310;2022-11-20T00:52:26;18.67;;;14.85;;
54428;SDS011;40337;52.978;6.310;2022-11-20T00:54:51;17.48;;;14.75;;
54428;SDS011;40337;52.978;6.310;2022-11-20T00:57:17;17.73;;;14.30;;
54428;SDS011;40337;52.978;6.310;2022-11-20T00:59:42;16.55;;;14.27;;
54428;SDS011;40337;52.978;6.310;2022-11-20T01:02:08;17.80;;;14.02;;
54428;SDS011;40337;52.978;6.310;2022-11-20T01:04:33;16.98;;;14.57;;
54428;SDS011;40337;52.978;6.310;2022-11-20T01:06:59;15.25;;;13.63;;
54428;SDS011;40337;52.978;6.310;2022-11-20T01:09:24;16.75;;;13.60;;
54428;SDS011;40337;52.978;6.310;2022-11-20T01:11:50;16.13;;;14.25;;
54428;SDS011;40337;52.978;6.310;2022-11-20T01:14:16;16.60;;;14.68;;
54428;SDS011;40337;52.978;6.310;2022-11-20T01:16:44;17.25;;;14.23;;
54428;SDS011;40337;52.978;6.310;2022-11-20T01:19:14;18.88;;;14.63;;
54428;SDS011;40337;52.978;6.310;2022-11-20T01:21:42;16.98;;;14.75;;
54428;SDS011;40337;52.978;6.310;2022-11-20T01:24:13;17.50;;;14.05;;
54428;SDS011;40337;52.978;6.310;2022-11-20T01:26:40;16.30;;;13.75;;
54428;SDS011;40337;52.978;6.310;2022-11-20T01:29:18;17.05;;;14.07;;
54428;SDS011;40337;52.978;6.310;2022-11-20T01:31:46;17.63;;;13.98;;
54428;SDS011;40337;52.978;6.310;2022-11-20T01:34:13;15.20;;;13.35;;
54428;SDS011;40337;52.978;6.310;2022-11-20T01:36:41;16.17;;;13.57;;
54428;SDS011;40337;52.978;6.310;2022-11-20T01:39:11;16.08;;;13.48;;
54428;SDS011;40337;52.978;6.310;2022-11-20T01:41:42;15.65;;;13.43;;
54428;SDS011;40337;52.978;6.310;2022-11-20T01:47:33;16.63;;;14.15;;
54428;SDS011;40337;52.978;6.310;2022-11-20T01:52:45;16.23;;;13.75;;
54428;SDS011;40337;52.978;6.310;2022-11-20T01:55:22;17.08;;;14.25;;
54428;SDS011;40337;52.978;6.310;2022-11-20T01:57:50;18.45;;;15.20;;
54428;SDS011;40337;52.978;6.310;2022-11-20T02:00:17;19.83;;;15.45;;
54428;SDS011;40337;52.978;6.310;2022-11-20T02:02:51;19.70;;;15.30;;
54428;SDS011;40337;52.978;6.310;2022-11-20T02:05:22;18.02;;;15.43;;
54428;SDS011;40337;52.978;6.310;2022-11-20T02:07:49;19.02;;;15.38;;
54428;SDS011;40337;52.978;6.310;2022-11-20T02:10:15;18.05;;;15.40;;
54428;SDS011;40337;52.978;6.310;2022-11-20T02:12:41;18.38;;;15.55;;
54428;SDS011;40337;52.978;6.310;2022-11-20T02:15:25;17.02;;;15.23;;
54428;SDS011;40337;52.978;6.310;2022-11-20T02:17:51;17.27;;;14.15;;
54428;SDS011;40337;52.978;6.310;2022-11-20T02:20:16;16.60;;;14.27;;
54428;SDS011;40337;52.978;6.310;2022-11-20T02:22:50;17.95;;;14.98;;
54428;SDS011;40337;52.978;6.310;2022-11-20T02:25:24;17.50;;;14.65;;
54428;SDS011;40337;52.978;6.310;2022-11-20T02:27:52;17.38;;;14.85;;
54428;SDS011;40337;52.978;6.310;2022-11-20T02:30:17;18.27;;;14.95;;
54428;SDS011;40337;52.978;6.310;2022-11-20T02:32:43;18.52;;;15.45;;
54428;SDS011;40337;52.978;6.310;2022-11-20T02:35:35;18.77;;;14.85;;
54428;SDS011;40337;52.978;6.310;2022-11-20T02:37:55;17.08;;;14.70;;
54428;SDS011;40337;52.978;6.310;2022-11-20T02:40:22;19.02;;;15.18;;
54428;SDS011;40337;52.978;6.310;2022-11-20T02:42:55;17.08;;;14.68;;
54428;SDS011;40337;52.978;6.310;2022-11-20T02:45:21;15.95;;;14.15;;
54428;SDS011;40337;52.978;6.310;2022-11-20T02:47:47;16.83;;;14.27;;
54428;SDS011;40337;52.978;6.310;2022-11-20T02:50:13;17.00;;;14.35;;
54428;SDS011;40337;52.978;6.310;2022-11-20T02:52:39;17.02;;;15.07;;
54428;SDS011;40337;52.978;6.310;2022-11-20T02:55:05;16.52;;;14.50;;
54428;SDS011;40337;52.978;6.310;2022-11-20T02:57:31;17.35;;;14.50;;
54428;SDS011;40337;52.978;6.310;2022-11-20T02:59:56;17.58;;;14.82;;
54428;SDS011;40337;52.978;6.310;2022-11-20T03:02:22;16.98;;;15.02;;
54428;SDS011;40337;52.978;6.310;2022-11-20T03:04:47;17.75;;;15.43;;
54428;SDS011;40337;52.978;6.310;2022-11-20T03:07:13;17.70;;;14.05;;
54428;SDS011;40337;52.978;6.310;2022-11-20T03:09:39;15.98;;;14.10;;
54428;SDS011;40337;52.978;6.310;2022-11-20T03:12:04;17.50;;;15.13;;
54428;SDS011;40337;52.978;6.310;2022-11-20T03:14:30;17.55;;;14.50;;
54428;SDS011;40337;52.978;6.310;2022-11-20T03:16:56;17.65;;;14.90;;
54428;SDS011;40337;52.978;6.310;2022-11-20T03:19:22;17.92;;;15.05;;
54428;SDS011;40337;52.978;6.310;2022-11-20T03:21:47;17.55;;;14.95;;
54428;SDS011;40337;52.978;6.310;2022-11-20T03:24:13;18.17;;;15.07;;
54428;SDS011;40337;52.978;6.310;2022-11-20T03:26:39;18.25;;;14.80;;
54428;SDS011;40337;52.978;6.310;2022-11-20T03:29:05;16.67;;;14.43;;
54428;SDS011;40337;52.978;6.310;2022-11-20T03:31:35;17.25;;;14.80;;
54428;SDS011;40337;52.978;6.310;2022-11-20T03:34:02;17.52;;;15.20;;
54428;SDS011;40337;52.978;6.310;2022-11-20T03:36:28;17.02;;;15.23;;
54428;SDS011;40337;52.978;6.310;2022-11-20T03:38:55;17.50;;;14.38;;
54428;SDS011;40337;52.978;6.310;2022-11-20T03:41:26;18.02;;;14.52;;
54428;SDS011;40337;52.978;6.310;2022-11-20T03:43:57;17.60;;;14.55;;
54428;SDS011;40337;52.978;6.310;2022-11-20T03:46:24;16.92;;;14.45;;
54428;SDS011;40337;52.978;6.310;2022-11-20T03:48:49;17.00;;;14.38;;
54428;SDS011;40337;52.978;6.310;2022-11-20T03:51:17;16.90;;;14.60;;
54428;SDS011;40337;52.978;6.310;2022-11-20T03:53:50;17.13;;;14.47;;
54428;SDS011;40337;52.978;6.310;2022-11-20T03:56:18;18.58;;;13.82;;
54428;SDS011;40337;52.978;6.310;2022-11-20T03:58:46;16.35;;;13.68;;
54428;SDS011;40337;52.978;6.310;2022-11-20T04:01:16;19.63;;;14.77;;
54428;SDS011;40337;52.978;6.310;2022-11-20T04:03:44;17.17;;;14.52;;
54428;SDS011;40337;52.978;6.310;2022-11-20T04:06:17;17.40;;;14.73;;
54428;SDS011;40337;52.978;6.310;2022-11-20T04:08:45;15.63;;;13.77;;
54428;SDS011;40337;52.978;6.310;2022-11-20T04:11:11;16.15;;;13.88;;
54428;SDS011;40337;52.978;6.310;2022-11-20T04:13:48;16.13;;;13.95;;
54428;SDS011;40337;52.978;6.310;2022-11-20T04:16:15;16.13;;;13.60;;
54428;SDS011;40337;52.978;6.310;2022-11-20T04:18:42;16.30;;;14.48;;
54428;SDS011;40337;52.978;6.310;2022-11-20T04:21:08;16.50;;;13.95;;
54428;SDS011;40337;52.978;6.310;2022-11-20T04:23:34;17.02;;;14.27;;
54428;SDS011;40337;52.978;6.310;2022-11-20T04:26:08;17.33;;;14.55;;
54428;SDS011;40337;52.978;6.310;2022-11-20T04:28:35;17.35;;;14.52;;
54428;SDS011;40337;52.978;6.310;2022-11-20T04:31:05;16.17;;;14.00;;
54428;SDS011;40337;52.978;6.310;2022-11-20T04:33:32;17.52;;;14.23;;
54428;SDS011;40337;52.978;6.310;2022-11-20T04:36:00;16.77;;;14.27;;
54428;SDS011;40337;52.978;6.310;2022-11-20T04:38:29;17.48;;;14.05;;
54428;SDS011;40337;52.978;6.310;2022-11-20T04:40:56;15.38;;;13.50;;
54428;SDS011;40337;52.978;6.310;2022-11-20T04:43:23;16.58;;;13.35;;
54428;SDS011;40337;52.978;6.310;2022-11-20T04:45:52;15.00;;;13.32;;
54428;SDS011;40337;52.978;6.310;2022-11-20T04:48:19;16.00;;;13.93;;
54428;SDS011;40337;52.978;6.310;2022-11-20T04:50:44;16.38;;;14.35;;
54428;SDS011;40337;52.978;6.310;2022-11-20T04:53:10;14.63;;;13.00;;
54428;SDS011;40337;52.978;6.310;2022-11-20T04:55:35;16.67;;;14.30;;
54428;SDS011;40337;52.978;6.310;2022-11-20T04:58:01;15.55;;;13.80;;
54428;SDS011;40337;52.978;6.310;2022-11-20T05:00:26;16.65;;;13.48;;
54428;SDS011;40337;52.978;6.310;2022-11-20T05:02:52;16.52;;;14.13;;
54428;SDS011;40337;52.978;6.310;2022-11-20T05:05:18;15.18;;;13.20;;
54428;SDS011;40337;52.978;6.310;2022-11-20T05:07:43;16.85;;;13.90;;
54428;SDS011;40337;52.978;6.310;2022-11-20T05:10:09;16.85;;;14.85;;
54428;SDS011;40337;52.978;6.310;2022-11-20T05:12:34;16.52;;;13.52;;
54428;SDS011;40337;52.978;6.310;2022-11-20T05:15:00;16.42;;;13.50;;
54428;SDS011;40337;52.978;6.310;2022-11-20T05:17:25;16.38;;;13.70;;
54428;SDS011;40337;52.978;6.310;2022-11-20T05:19:51;14.60;;;13.00;;
54428;SDS011;40337;52.978;6.310;2022-11-20T05:22:16;16.55;;;13.50;;
54428;SDS011;40337;52.978;6.310;2022-11-20T05:24:42;15.23;;;13.05;;
54428;SDS011;40337;52.978;6.310;2022-11-20T05:27:07;15.15;;;13.25;;
54428;SDS011;40337;52.978;6.310;2022-11-20T05:29:33;16.85;;;13.40;;
54428;SDS011;40337;52.978;6.310;2022-11-20T05:31:58;15.90;;;13.23;;
54428;SDS011;40337;52.978;6.310;2022-11-20T05:34:24;16.10;;;13.60;;
54428;SDS011;40337;52.978;6.310;2022-11-20T05:36:49;16.67;;;13.80;;
54428;SDS011;40337;52.978;6.310;2022-11-20T05:39:15;16.00;;;13.60;;
54428;SDS011;40337;52.978;6.310;2022-11-20T05:41:41;15.45;;;13.25;;
54428;SDS011;40337;52.978;6.310;2022-11-20T05:44:06;16.08;;;13.40;;
54428;SDS011;40337;52.978;6.310;2022-11-20T05:46:32;15.23;;;12.65;;
54428;SDS011;40337;52.978;6.310;2022-11-20T05:48:57;14.13;;;12.60;;
54428;SDS011;40337;52.978;6.310;2022-11-20T05:51:24;15.10;;;12.70;;
54428;SDS011;40337;52.978;6.310;2022-11-20T05:53:50;14.20;;;12.55;;
54428;SDS011;40337;52.978;6.310;2022-11-20T05:56:16;15.27;;;13.10;;
54428;SDS011;40337;52.978;6.310;2022-11-20T05:58:44;14.30;;;12.20;;
54428;SDS011;40337;52.978;6.310;2022-11-20T06:01:11;14.90;;;12.68;;
54428;SDS011;40337;52.978;6.310;2022-11-20T06:03:51;15.10;;;12.70;;
54428;SDS011;40337;52.978;6.310;2022-11-20T06:06:18;14.02;;;12.18;;
54428;SDS011;40337;52.978;6.310;2022-11-20T06:08:44;14.75;;;12.45;;
54428;SDS011;40337;52.978;6.310;2022-11-20T06:11:11;15.77;;;12.80;;
54428;SDS011;40337;52.978;6.310;2022-11-20T06:13:38;14.27;;;12.32;;
54428;SDS011;40337;52.978;6.310;2022-11-20T06:16:04;15.40;;;12.50;;
54428;SDS011;40337;52.978;6.310;2022-11-20T06:18:30;14.80;;;12.10;;
54428;SDS011;40337;52.978;6.310;2022-11-20T06:20:59;15.18;;;12.43;;
54428;SDS011;40337;52.978;6.310;2022-11-20T06:23:27;14.25;;;12.23;;
54428;SDS011;40337;52.978;6.310;2022-11-20T06:25:54;13.68;;;11.75;;
54428;SDS011;40337;52.978;6.310;2022-11-20T06:28:19;14.23;;;12.40;;
54428;SDS011;40337;52.978;6.310;2022-11-20T06:30:45;13.45;;;12.05;;
54428;SDS011;40337;52.978;6.310;2022-11-20T06:33:11;14.43;;;12.32;;
54428;SDS011;40337;52.978;6.310;2022-11-20T06:35:36;13.43;;;11.70;;
54428;SDS011;40337;52.978;6.310;2022-11-20T06:38:02;13.85;;;12.35;;
54428;SDS011;40337;52.978;6.310;2022-11-20T06:40:27;14.10;;;12.30;;
54428;SDS011;40337;52.978;6.310;2022-11-20T06:42:53;13.82;;;11.95;;
54428;SDS011;40337;52.978;6.310;2022-11-20T06:45:19;13.98;;;12.13;;
54428;SDS011;40337;52.978;6.310;2022-11-20T06:47:46;13.93;;;12.43;;
54428;SDS011;40337;52.978;6.310;2022-11-20T06:50:11;15.48;;;12.93;;
54428;SDS011;40337;52.978;6.310;2022-11-20T06:52:37;13.93;;;12.43;;
54428;SDS011;40337;52.978;6.310;2022-11-20T06:55:03;15.73;;;12.32;;
54428;SDS011;40337;52.978;6.310;2022-11-20T06:57:29;14.23;;;12.05;;
54428;SDS011;40337;52.978;6.310;2022-11-20T06:59:54;13.15;;;11.40;;
54428;SDS011;40337;52.978;6.310;2022-11-20T07:02:20;14.13;;;11.30;;
54428;SDS011;40337;52.978;6.310;2022-11-20T07:04:45;13.85;;;11.15;;
54428;SDS011;40337;52.978;6.310;2022-11-20T07:07:11;15.48;;;12.43;;
54428;SDS011;40337;52.978;6.310;2022-11-20T07:09:36;13.52;;;11.70;;
54428;SDS011;40337;52.978;6.310;2022-11-20T07:12:02;13.50;;;12.07;;
54428;SDS011;40337;52.978;6.310;2022-11-20T07:14:28;14.52;;;11.90;;
54428;SDS011;40337;52.978;6.310;2022-11-20T07:16:53;13.73;;;11.73;;
54428;SDS011;40337;52.978;6.310;2022-11-20T07:19:19;13.13;;;11.52;;
54428;SDS011;40337;52.978;6.310;2022-11-20T07:21:45;13.88;;;12.38;;
54428;SDS011;40337;52.978;6.310;2022-11-20T07:24:10;15.27;;;12.60;;
54428;SDS011;40337;52.978;6.310;2022-11-20T07:26:36;14.50;;;12.48;;
54428;SDS011;40337;52.978;6.310;2022-11-20T07:29:01;15.35;;;13.05;;
54428;SDS011;40337;52.978;6.310;2022-11-20T07:31:27;15.40;;;13.35;;
54428;SDS011;40337;52.978;6.310;2022-11-20T07:33:52;15.07;;;12.82;;
54428;SDS011;40337;52.978;6.310;2022-11-20T07:36:18;15.70;;;13.38;;
54428;SDS011;40337;52.978;6.310;2022-11-20T07:38:43;15.02;;;13.43;;
54428;SDS011;40337;52.978;6.310;2022-11-20T07:41:09;15.52;;;13.30;;
54428;SDS011;40337;52.978;6.310;2022-11-20T07:43:34;14.50;;;12.63;;
54428;SDS011;40337;52.978;6.310;2022-11-20T07:46:00;17.15;;;13.48;;
54428;SDS011;40337;52.978;6.310;2022-11-20T07:48:25;14.35;;;12.50;;
54428;SDS011;40337;52.978;6.310;2022-11-20T07:50:55;14.85;;;13.13;;
54428;SDS011;40337;52.978;6.310;2022-11-20T07:53:21;16.98;;;13.48;;
54428;SDS011;40337;52.978;6.310;2022-11-20T07:55:48;15.25;;;13.20;;
54428;SDS011;40337;52.978;6.310;2022-11-20T07:58:15;15.50;;;12.82;;
54428;SDS011;40337;52.978;6.310;2022-11-20T08:00:40;13.88;;;12.38;;
54428;SDS011;40337;52.978;6.310;2022-11-20T08:03:07;14.82;;;12.30;;
54428;SDS011;40337;52.978;6.310;2022-11-20T08:05:32;14.75;;;12.98;;
54428;SDS011;40337;52.978;6.310;2022-11-20T08:07:58;16.00;;;13.05;;
54428;SDS011;40337;52.978;6.310;2022-11-20T08:10:24;15.15;;;12.38;;
54428;SDS011;40337;52.978;6.310;2022-11-20T08:12:50;14.57;;;12.60;;
54428;SDS011;40337;52.978;6.310;2022-11-20T08:15:36;14.32;;;12.45;;
54428;SDS011;40337;52.978;6.310;2022-11-20T08:18:04;14.10;;;12.60;;
54428;SDS011;40337;52.978;6.310;2022-11-20T08:20:30;15.10;;;13.15;;
54428;SDS011;40337;52.978;6.310;2022-11-20T08:23:00;15.52;;;13.27;;
54428;SDS011;40337;52.978;6.310;2022-11-20T08:25:27;15.68;;;12.95;;
54428;SDS011;40337;52.978;6.310;2022-11-20T08:27:53;16.17;;;13.57;;
54428;SDS011;40337;52.978;6.310;2022-11-20T08:30:21;15.85;;;12.75;;
54428;SDS011;40337;52.978;6.310;2022-11-20T08:32:47;14.13;;;12.35;;
54428;SDS011;40337;52.978;6.310;2022-11-20T08:35:12;15.77;;;13.18;;
54428;SDS011;40337;52.978;6.310;2022-11-20T08:37:38;15.27;;;12.85;;
54428;SDS011;40337;52.978;6.310;2022-11-20T08:40:07;14.85;;;12.35;;
54428;SDS011;40337;52.978;6.310;2022-11-20T08:42:34;15.07;;;13.40;;
54428;SDS011;40337;52.978;6.310;2022-11-20T08:45:00;17.10;;;13.85;;
54428;SDS011;40337;52.978;6.310;2022-11-20T08:47:25;15.32;;;12.77;;
54428;SDS011;40337;52.978;6.310;2022-11-20T08:49:51;14.85;;;12.45;;
54428;SDS011;40337;52.978;6.310;2022-11-20T08:52:17;15.40;;;13.15;;
54428;SDS011;40337;52.978;6.310;2022-11-20T08:54:42;14.30;;;12.65;;
54428;SDS011;40337;52.978;6.310;2022-11-20T08:57:08;13.88;;;12.38;;
54428;SDS011;40337;52.978;6.310;2022-11-20T08:59:33;15.68;;;12.35;;
54428;SDS011;40337;52.978;6.310;2022-11-20T09:01:59;14.95;;;12.15;;
54428;SDS011;40337;52.978;6.310;2022-11-20T09:04:24;13.75;;;11.77;;
54428;SDS011;40337;52.978;6.310;2022-11-20T09:06:50;13.80;;;12.07;;
54428;SDS011;40337;52.978;6.310;2022-11-20T09:09:16;14.48;;;12.15;;
54428;SDS011;40337;52.978;6.310;2022-11-20T09:11:43;15.18;;;11.63;;
54428;SDS011;40337;52.978;6.310;2022-11-20T09:14:09;13.23;;;11.30;;
54428;SDS011;40337;52.978;6.310;2022-11-20T09:16:34;13.38;;;11.15;;
54428;SDS011;40337;52.978;6.310;2022-11-20T09:19:00;14.70;;;11.48;;
54428;SDS011;40337;52.978;6.310;2022-11-20T09:21:25;13.10;;;11.00;;
54428;SDS011;40337;52.978;6.310;2022-11-20T09:23:51;12.20;;;10.52;;
54428;SDS011;40337;52.978;6.310;2022-11-20T09:26:16;12.52;;;10.77;;
54428;SDS011;40337;52.978;6.310;2022-11-20T09:28:42;12.98;;;10.90;;
54428;SDS011;40337;52.978;6.310;2022-11-20T09:31:08;13.30;;;11.43;;
54428;SDS011;40337;52.978;6.310;2022-11-20T09:33:38;11.88;;;10.48;;
54428;SDS011;40337;52.978;6.310;2022-11-20T09:36:04;12.50;;;10.57;;
54428;SDS011;40337;52.978;6.310;2022-11-20T09:38:30;14.20;;;10.77;;
54428;SDS011;40337;52.978;6.310;2022-11-20T09:43:29;14.48;;;11.57;;
54428;SDS011;40337;52.978;6.310;2022-11-20T09:46:57;12.73;;;10.77;;
54428;SDS011;40337;52.978;6.310;2022-11-20T09:52:12;11.45;;;9.52;;
54428;SDS011;40337;52.978;6.310;2022-11-20T09:54:57;11.55;;;9.93;;
54428;SDS011;40337;52.978;6.310;2022-11-20T09:57:29;13.13;;;11.05;;
54428;SDS011;40337;52.978;6.310;2022-11-20T10:00:06;12.07;;;10.50;;
54428;SDS011;40337;52.978;6.310;2022-11-20T10:02:55;12.32;;;10.23;;
54428;SDS011;40337;52.978;6.310;2022-11-20T10:05:33;14.13;;;10.25;;
54428;SDS011;40337;52.978;6.310;2022-11-20T10:13:37;11.67;;;10.00;;
54428;SDS011;40337;52.978;6.310;2022-11-20T10:22:32;9.82;;;8.82;;
54428;SDS011;40337;52.978;6.310;2022-11-20T10:27:50;9.93;;;8.52;;
54428;SDS011;40337;52.978;6.310;2022-11-20T10:30:40;9.55;;;8.25;;
54428;SDS011;40337;52.978;6.310;2022-11-20T10:33:19;9.82;;;8.40;;
54428;SDS011;40337;52.978;6.310;2022-11-20T10:36:08;10.13;;;8.10;;
54428;SDS011;40337;52.978;6.310;2022-11-20T10:38:44;10.25;;;8.15;;
54428;SDS011;40337;52.978;6.310;2022-11-20T10:41:26;8.93;;;7.43;;
54428;SDS011;40337;52.978;6.310;2022-11-20T10:44:02;10.02;;;8.20;;
54428;SDS011;40337;52.978;6.310;2022-11-20T10:46:48;8.52;;;7.47;;
54428;SDS011;40337;52.978;6.310;2022-11-20T10:49:32;8.10;;;6.90;;
54428;SDS011;40337;52.978;6.310;2022-11-20T10:52:04;8.93;;;6.75;;
54428;SDS011;40337;52.978;6.310;2022-11-20T10:54:47;7.82;;;6.53;;
54428;SDS011;40337;52.978;6.310;2022-11-20T10:57:53;7.35;;;6.35;;
54428;SDS011;40337;52.978;6.310;2022-11-20T11:00:33;8.25;;;6.38;;
54428;SDS011;40337;52.978;6.310;2022-11-20T11:02:58;8.75;;;6.50;;
54428;SDS011;40337;52.978;6.310;2022-11-20T11:08:19;7.45;;;6.30;;
54428;SDS011;40337;52.978;6.310;2022-11-20T11:10:51;8.18;;;7.28;;
54428;SDS011;40337;52.978;6.310;2022-11-20T11:13:27;8.90;;;6.90;;
54428;SDS011;40337;52.978;6.310;2022-11-20T11:15:54;7.93;;;7.00;;
54428;SDS011;40337;52.978;6.310;2022-11-20T11:18:38;8.70;;;7.35;;
54428;SDS011;40337;52.978;6.310;2022-11-20T11:21:04;8.60;;;6.50;;
54428;SDS011;40337;52.978;6.310;2022-11-20T11:23:40;8.35;;;7.13;;
54428;SDS011;40337;52.978;6.310;2022-11-20T11:26:18;9.00;;;7.32;;
54428;SDS011;40337;52.978;6.310;2022-11-20T11:28:52;8.45;;;7.22;;
54428;SDS011;40337;52.978;6.310;2022-11-20T11:31:32;8.85;;;7.60;;
54428;SDS011;40337;52.978;6.310;2022-11-20T11:34:33;8.60;;;7.07;;
54428;SDS011;40337;52.978;6.310;2022-11-20T11:36:58;8.18;;;7.18;;
54428;SDS011;40337;52.978;6.310;2022-11-20T11:39:26;9.68;;;6.90;;
54428;SDS011;40337;52.978;6.310;2022-11-20T11:41:53;8.65;;;6.78;;
54428;SDS011;40337;52.978;6.310;2022-11-20T11:44:24;9.20;;;7.03;;
54428;SDS011;40337;52.978;6.310;2022-11-20T11:47:29;8.07;;;6.05;;
54428;SDS011;40337;52.978;6.310;2022-11-20T11:55:17;7.75;;;6.50;;
54428;SDS011;40337;52.978;6.310;2022-11-20T11:58:11;8.77;;;6.93;;
54428;SDS011;40337;52.978;6.310;2022-11-20T12:01:10;7.28;;;6.05;;
54428;SDS011;40337;52.978;6.310;2022-11-20T12:03:53;7.95;;;5.72;;
54428;SDS011;40337;52.978;6.310;2022-11-20T12:06:25;8.98;;;6.53;;
54428;SDS011;40337;52.978;6.310;2022-11-20T12:09:02;6.22;;;5.22;;
54428;SDS011;40337;52.978;6.310;2022-11-20T12:14:29;6.95;;;5.70;;
54428;SDS011;40337;52.978;6.310;2022-11-20T12:17:07;6.22;;;5.10;;
54428;SDS011;40337;52.978;6.310;2022-11-20T12:19:37;7.35;;;5.57;;
54428;SDS011;40337;52.978;6.310;2022-11-20T12:25:11;7.53;;;6.00;;
54428;SDS011;40337;52.978;6.310;2022-11-20T12:30:30;7.32;;;5.90;;
54428;SDS011;40337;52.978;6.310;2022-11-20T12:35:59;7.82;;;5.93;;
54428;SDS011;40337;52.978;6.310;2022-11-20T12:38:55;6.95;;;5.60;;
54428;SDS011;40337;52.978;6.310;2022-11-20T12:41:39;6.20;;;4.82;;
54428;SDS011;40337;52.978;6.310;2022-11-20T12:50:37;6.00;;;4.90;;
54428;SDS011;40337;52.978;6.310;2022-11-20T12:56:17;7.35;;;5.53;;
54428;SDS011;40337;52.978;6.310;2022-11-20T13:04:48;6.50;;;5.38;;
54428;SDS011;40337;52.978;6.310;2022-11-20T13:07:32;7.93;;;6.32;;
54428;SDS011;40337;52.978;6.310;2022-11-20T13:10:00;8.43;;;6.00;;
54428;SDS011;40337;52.978;6.310;2022-11-20T13:12:44;7.35;;;5.75;;
54428;SDS011;40337;52.978;6.310;2022-11-20T13:17:55;8.52;;;6.20;;
54428;SDS011;40337;52.978;6.310;2022-11-20T13:20:24;6.95;;;6.00;;
54428;SDS011;40337;52.978;6.310;2022-11-20T13:22:51;7.40;;;6.05;;
54428;SDS011;40337;52.978;6.310;2022-11-20T13:27:53;8.50;;;6.32;;
54428;SDS011;40337;52.978;6.310;2022-11-20T13:30:20;7.60;;;6.30;;
54428;SDS011;40337;52.978;6.310;2022-11-20T13:33:01;7.53;;;6.13;;
54428;SDS011;40337;52.978;6.310;2022-11-20T13:35:35;9.57;;;6.68;;
54428;SDS011;40337;52.978;6.310;2022-11-20T13:38:10;8.05;;;6.13;;
54428;SDS011;40337;52.978;6.310;2022-11-20T13:40:38;8.20;;;6.60;;
54428;SDS011;40337;52.978;6.310;2022-11-20T13:43:34;8.30;;;6.55;;
54428;SDS011;40337;52.978;6.310;2022-11-20T13:46:07;8.10;;;6.47;;
54428;SDS011;40337;52.978;6.310;2022-11-20T13:48:41;8.40;;;6.47;;
54428;SDS011;40337;52.978;6.310;2022-11-20T13:54:22;7.68;;;6.10;;
54428;SDS011;40337;52.978;6.310;2022-11-20T14:00:03;8.52;;;6.85;;
54428;SDS011;40337;52.978;6.310;2022-11-20T14:02:30;8.50;;;6.40;;
54428;SDS011;40337;52.978;6.310;2022-11-20T14:04:59;7.70;;;6.50;;
54428;SDS011;40337;52.978;6.310;2022-11-20T14:07:36;8.23;;;6.63;;
54428;SDS011;40337;52.978;6.310;2022-11-20T14:10:05;8.38;;;6.70;;
54428;SDS011;40337;52.978;6.310;2022-11-20T14:12:44;9.40;;;7.47;;
54428;SDS011;40337;52.978;6.310;2022-11-20T14:15:23;8.35;;;7.45;;
54428;SDS011;40337;52.978;6.310;2022-11-20T14:17:57;8.13;;;6.93;;
54428;SDS011;40337;52.978;6.310;2022-11-20T14:20:24;9.95;;;7.22;;
54428;SDS011;40337;52.978;6.310;2022-11-20T14:22:52;9.25;;;7.63;;
54428;SDS011;40337;52.978;6.310;2022-11-20T14:25:23;8.32;;;6.85;;
54428;SDS011;40337;52.978;6.310;2022-11-20T14:27:56;9.18;;;7.65;;
54428;SDS011;40337;52.978;6.310;2022-11-20T14:30:24;9.80;;;8.05;;
54428;SDS011;40337;52.978;6.310;2022-11-20T14:33:01;9.40;;;7.68;;
54428;SDS011;40337;52.978;6.310;2022-11-20T14:35:36;10.38;;;8.15;;
54428;SDS011;40337;52.978;6.310;2022-11-20T14:38:09;9.93;;;8.30;;
54428;SDS011;40337;52.978;6.310;2022-11-20T14:40:38;9.65;;;8.15;;
54428;SDS011;40337;52.978;6.310;2022-11-20T14:43:16;10.35;;;8.85;;
54428;SDS011;40337;52.978;6.310;2022-11-20T14:46:07;11.73;;;9.50;;
54428;SDS011;40337;52.978;6.310;2022-11-20T14:48:38;12.00;;;10.00;;
54428;SDS011;40337;52.978;6.310;2022-11-20T14:51:04;11.20;;;9.93;;
54428;SDS011;40337;52.978;6.310;2022-11-20T14:53:30;12.25;;;10.40;;
54428;SDS011;40337;52.978;6.310;2022-11-20T14:56:00;11.90;;;10.60;;
54428;SDS011;40337;52.978;6.310;2022-11-20T14:58:28;11.48;;;9.80;;
54428;SDS011;40337;52.978;6.310;2022-11-20T15:01:14;12.57;;;10.95;;
54428;SDS011;40337;52.978;6.310;2022-11-20T15:03:57;12.07;;;10.43;;
54428;SDS011;40337;52.978;6.310;2022-11-20T15:06:29;12.05;;;9.80;;
54428;SDS011;40337;52.978;6.310;2022-11-20T15:08:56;12.10;;;10.55;;
54428;SDS011;40337;52.978;6.310;2022-11-20T15:11:25;12.32;;;10.68;;
54428;SDS011;40337;52.978;6.310;2022-11-20T15:13:54;12.43;;;10.18;;
54428;SDS011;40337;52.978;6.310;2022-11-20T15:16:21;10.95;;;9.70;;
54428;SDS011;40337;52.978;6.310;2022-11-20T15:18:48;12.73;;;10.32;;
54428;SDS011;40337;52.978;6.310;2022-11-20T15:21:15;12.32;;;10.55;;
54428;SDS011;40337;52.978;6.310;2022-11-20T15:23:42;12.88;;;10.50;;
54428;SDS011;40337;52.978;6.310;2022-11-20T15:26:08;11.95;;;10.60;;
54428;SDS011;40337;52.978;6.310;2022-11-20T15:28:39;12.10;;;10.70;;
54428;SDS011;40337;52.978;6.310;2022-11-20T15:31:09;11.52;;;10.15;;
54428;SDS011;40337;52.978;6.310;2022-11-20T15:33:37;11.23;;;10.02;;
54428;SDS011;40337;52.978;6.310;2022-11-20T15:36:03;12.18;;;10.88;;
54428;SDS011;40337;52.978;6.310;2022-11-20T15:38:29;12.13;;;10.15;;
54428;SDS011;40337;52.978;6.310;2022-11-20T15:40:54;12.48;;;10.60;;
54428;SDS011;40337;52.978;6.310;2022-11-20T15:43:20;11.68;;;10.20;;
54428;SDS011;40337;52.978;6.310;2022-11-20T15:48:23;12.38;;;10.52;;
54428;SDS011;40337;52.978;6.310;2022-11-20T15:53:22;12.32;;;10.70;;
54428;SDS011;40337;52.978;6.310;2022-11-20T15:55:48;11.68;;;10.43;;
54428;SDS011;40337;52.978;6.310;2022-11-20T15:58:13;12.35;;;10.20;;
54428;SDS011;40337;52.978;6.310;2022-11-20T16:00:41;15.18;;;11.13;;